sensor_id;sensor_type;location;lat;lon;timestamp;P1;durP1;ratioP1;P2;durP2;ratioP2
4272;SDS011;63887;53.656;9.810;2023-04-24T00:00:22;5.40;;;5.20;;
4272;SDS011;63887;53.656;9.810;2023-04-24T00:02:49;6.17;;;5.70;;
4272;SDS011;63887;53.656;9.810;2023-04-24T00:05:15;5.00;;;4.90;;
4272;SDS011;63887;53.656;9.810;2023-04-24T00:07:43;5.37;;;5.27;;
4272;SDS011;63887;53.656;9.810;2023-04-24T00:10:11;5.07;;;4.97;;
4272;SDS011;63887;53.656;9.810;2023-04-24T00:12:38;4.90;;;4.80;;
4272;SDS011;63887;53.656;9.810;2023-04-24T00:15:05;4.97;;;4.73;;
4272;SDS011;63887;53.656;9.810;2023-04-24T00:17:32;5.73;;;5.50;;
4272;SDS011;63887;53.656;9.810;2023-04-24T00:19:59;4.07;;;4.07;;
4272;SDS011;63887;53.656;9.810;2023-04-24T00:22:26;5.60;;;5.30;;
4272;SDS011;63887;53.656;9.810;2023-04-24T00:24:54;5.37;;;5.07;;
4272;SDS011;63887;53.656;9.810;2023-04-24T00:27:22;4.40;;;4.30;;
4272;SDS011;63887;53.656;9.810;2023-04-24T00:29:48;4.87;;;4.70;;
4272;SDS011;63887;53.656;9.810;2023-04-24T00:32:15;4.63;;;4.53;;
4272;SDS011;63887;53.656;9.810;2023-04-24T00:34:42;5.67;;;5.43;;
4272;SDS011;63887;53.656;9.810;2023-04-24T00:37:09;4.70;;;4.60;;
4272;SDS011;63887;53.656;9.810;2023-04-24T00:39:36;4.40;;;4.30;;
4272;SDS011;63887;53.656;9.810;2023-04-24T00:42:03;4.93;;;4.83;;
4272;SDS011;63887;53.656;9.810;2023-04-24T00:44:32;4.10;;;3.97;;
4272;SDS011;63887;53.656;9.810;2023-04-24T00:46:59;5.10;;;4.90;;
4272;SDS011;63887;53.656;9.810;2023-04-24T00:49:26;4.13;;;4.03;;
4272;SDS011;63887;53.656;9.810;2023-04-24T00:51:53;4.63;;;4.57;;
4272;SDS011;63887;53.656;9.810;2023-04-24T00:54:19;5.73;;;5.57;;
4272;SDS011;63887;53.656;9.810;2023-04-24T00:56:46;4.77;;;4.67;;
4272;SDS011;63887;53.656;9.810;2023-04-24T00:59:13;4.40;;;4.33;;
4272;SDS011;63887;53.656;9.810;2023-04-24T01:01:44;8.33;;;5.10;;
4272;SDS011;63887;53.656;9.810;2023-04-24T01:04:11;4.60;;;4.50;;
4272;SDS011;63887;53.656;9.810;2023-04-24T01:06:38;4.47;;;4.37;;
4272;SDS011;63887;53.656;9.810;2023-04-24T01:09:06;5.13;;;5.03;;
4272;SDS011;63887;53.656;9.810;2023-04-24T01:11:34;4.70;;;4.60;;
4272;SDS011;63887;53.656;9.810;2023-04-24T01:14:00;4.80;;;4.70;;
4272;SDS011;63887;53.656;9.810;2023-04-24T01:16:27;4.50;;;4.40;;
4272;SDS011;63887;53.656;9.810;2023-04-24T01:18:55;4.50;;;4.43;;
4272;SDS011;63887;53.656;9.810;2023-04-24T01:21:21;5.13;;;5.03;;
4272;SDS011;63887;53.656;9.810;2023-04-24T01:23:51;4.77;;;4.67;;
4272;SDS011;63887;53.656;9.810;2023-04-24T01:26:18;5.53;;;5.33;;
4272;SDS011;63887;53.656;9.810;2023-04-24T01:28:45;6.20;;;5.60;;
4272;SDS011;63887;53.656;9.810;2023-04-24T01:31:12;5.37;;;5.17;;
4272;SDS011;63887;53.656;9.810;2023-04-24T01:33:40;4.83;;;4.67;;
4272;SDS011;63887;53.656;9.810;2023-04-24T01:36:07;5.30;;;5.20;;
4272;SDS011;63887;53.656;9.810;2023-04-24T01:38:36;5.30;;;5.13;;
4272;SDS011;63887;53.656;9.810;2023-04-24T01:41:04;4.70;;;4.60;;
4272;SDS011;63887;53.656;9.810;2023-04-24T01:43:30;4.07;;;4.07;;
4272;SDS011;63887;53.656;9.810;2023-04-24T01:45:57;4.90;;;4.80;;
4272;SDS011;63887;53.656;9.810;2023-04-24T01:48:24;4.67;;;4.63;;
4272;SDS011;63887;53.656;9.810;2023-04-24T01:50:51;4.87;;;4.73;;
4272;SDS011;63887;53.656;9.810;2023-04-24T01:53:17;4.70;;;4.63;;
4272;SDS011;63887;53.656;9.810;2023-04-24T01:55:44;4.43;;;4.43;;
4272;SDS011;63887;53.656;9.810;2023-04-24T01:58:11;4.90;;;4.63;;
4272;SDS011;63887;53.656;9.810;2023-04-24T02:00:38;4.67;;;4.67;;
4272;SDS011;63887;53.656;9.810;2023-04-24T02:03:04;4.00;;;4.00;;
4272;SDS011;63887;53.656;9.810;2023-04-24T02:05:31;4.27;;;4.27;;
4272;SDS011;63887;53.656;9.810;2023-04-24T02:07:57;4.40;;;4.30;;
4272;SDS011;63887;53.656;9.810;2023-04-24T02:10:24;4.80;;;4.70;;
4272;SDS011;63887;53.656;9.810;2023-04-24T02:12:51;4.30;;;4.30;;
4272;SDS011;63887;53.656;9.810;2023-04-24T02:15:19;4.57;;;4.50;;
4272;SDS011;63887;53.656;9.810;2023-04-24T02:17:45;4.63;;;4.53;;
4272;SDS011;63887;53.656;9.810;2023-04-24T02:20:12;4.37;;;4.37;;
4272;SDS011;63887;53.656;9.810;2023-04-24T02:22:38;4.60;;;4.50;;
4272;SDS011;63887;53.656;9.810;2023-04-24T02:25:05;5.23;;;5.13;;
4272;SDS011;63887;53.656;9.810;2023-04-24T02:27:32;4.73;;;4.73;;
4272;SDS011;63887;53.656;9.810;2023-04-24T02:29:59;5.27;;;5.17;;
4272;SDS011;63887;53.656;9.810;2023-04-24T02:32:27;4.50;;;4.50;;
4272;SDS011;63887;53.656;9.810;2023-04-24T02:34:53;4.17;;;4.17;;
4272;SDS011;63887;53.656;9.810;2023-04-24T02:37:20;4.53;;;4.53;;
4272;SDS011;63887;53.656;9.810;2023-04-24T02:39:46;4.13;;;4.13;;
4272;SDS011;63887;53.656;9.810;2023-04-24T02:42:13;4.40;;;4.40;;
4272;SDS011;63887;53.656;9.810;2023-04-24T02:44:40;4.20;;;4.20;;
4272;SDS011;63887;53.656;9.810;2023-04-24T02:47:07;4.60;;;4.50;;
4272;SDS011;63887;53.656;9.810;2023-04-24T02:49:35;4.03;;;4.03;;
4272;SDS011;63887;53.656;9.810;2023-04-24T02:52:01;3.83;;;3.83;;
4272;SDS011;63887;53.656;9.810;2023-04-24T02:54:28;4.50;;;4.40;;
4272;SDS011;63887;53.656;9.810;2023-04-24T02:56:54;4.60;;;4.50;;
4272;SDS011;63887;53.656;9.810;2023-04-24T02:59:21;3.43;;;3.43;;
4272;SDS011;63887;53.656;9.810;2023-04-24T03:01:48;4.43;;;4.33;;
4272;SDS011;63887;53.656;9.810;2023-04-24T03:04:14;4.30;;;4.30;;
4272;SDS011;63887;53.656;9.810;2023-04-24T03:06:42;4.40;;;4.20;;
4272;SDS011;63887;53.656;9.810;2023-04-24T03:09:09;5.23;;;5.10;;
4272;SDS011;63887;53.656;9.810;2023-04-24T03:11:35;4.60;;;4.60;;
4272;SDS011;63887;53.656;9.810;2023-04-24T03:14:02;4.70;;;4.70;;
4272;SDS011;63887;53.656;9.810;2023-04-24T03:16:28;4.37;;;4.37;;
4272;SDS011;63887;53.656;9.810;2023-04-24T03:18:55;4.37;;;4.27;;
4272;SDS011;63887;53.656;9.810;2023-04-24T03:21:22;5.20;;;5.00;;
4272;SDS011;63887;53.656;9.810;2023-04-24T03:23:50;4.00;;;4.00;;
4272;SDS011;63887;53.656;9.810;2023-04-24T03:26:16;4.00;;;4.00;;
4272;SDS011;63887;53.656;9.810;2023-04-24T03:28:42;4.43;;;4.43;;
4272;SDS011;63887;53.656;9.810;2023-04-24T03:31:09;3.77;;;3.77;;
4272;SDS011;63887;53.656;9.810;2023-04-24T03:33:35;4.27;;;4.27;;
4272;SDS011;63887;53.656;9.810;2023-04-24T03:36:02;4.50;;;4.40;;
4272;SDS011;63887;53.656;9.810;2023-04-24T03:38:29;4.50;;;4.50;;
4272;SDS011;63887;53.656;9.810;2023-04-24T03:40:56;4.07;;;4.07;;
4272;SDS011;63887;53.656;9.810;2023-04-24T03:43:23;4.37;;;4.37;;
4272;SDS011;63887;53.656;9.810;2023-04-24T03:45:49;5.33;;;5.23;;
4272;SDS011;63887;53.656;9.810;2023-04-24T03:48:16;4.90;;;4.80;;
4272;SDS011;63887;53.656;9.810;2023-04-24T03:50:42;4.57;;;4.57;;
4272;SDS011;63887;53.656;9.810;2023-04-24T03:53:09;4.93;;;4.87;;
4272;SDS011;63887;53.656;9.810;2023-04-24T03:55:35;4.67;;;4.67;;
4272;SDS011;63887;53.656;9.810;2023-04-24T03:58:03;4.70;;;4.70;;
4272;SDS011;63887;53.656;9.810;2023-04-24T04:00:30;5.10;;;5.03;;
4272;SDS011;63887;53.656;9.810;2023-04-24T04:02:58;5.20;;;5.20;;
4272;SDS011;63887;53.656;9.810;2023-04-24T04:05:24;5.37;;;5.27;;
4272;SDS011;63887;53.656;9.810;2023-04-24T04:07:51;5.10;;;5.00;;
4272;SDS011;63887;53.656;9.810;2023-04-24T04:10:17;5.20;;;5.10;;
4272;SDS011;63887;53.656;9.810;2023-04-24T04:12:44;4.73;;;4.63;;
4272;SDS011;63887;53.656;9.810;2023-04-24T04:15:12;4.70;;;4.70;;
4272;SDS011;63887;53.656;9.810;2023-04-24T04:17:38;5.00;;;5.00;;
4272;SDS011;63887;53.656;9.810;2023-04-24T04:20:05;5.80;;;5.80;;
4272;SDS011;63887;53.656;9.810;2023-04-24T04:22:34;5.90;;;5.80;;
4272;SDS011;63887;53.656;9.810;2023-04-24T04:25:01;5.77;;;5.60;;
4272;SDS011;63887;53.656;9.810;2023-04-24T04:27:28;5.13;;;5.13;;
4272;SDS011;63887;53.656;9.810;2023-04-24T04:29:57;4.67;;;4.67;;
4272;SDS011;63887;53.656;9.810;2023-04-24T04:32:25;5.60;;;5.50;;
4272;SDS011;63887;53.656;9.810;2023-04-24T04:34:52;5.17;;;5.17;;
4272;SDS011;63887;53.656;9.810;2023-04-24T04:37:19;5.53;;;5.43;;
4272;SDS011;63887;53.656;9.810;2023-04-24T04:39:45;5.20;;;5.20;;
4272;SDS011;63887;53.656;9.810;2023-04-24T04:42:12;5.43;;;5.37;;
4272;SDS011;63887;53.656;9.810;2023-04-24T04:44:38;5.43;;;5.33;;
4272;SDS011;63887;53.656;9.810;2023-04-24T04:47:05;5.00;;;5.00;;
4272;SDS011;63887;53.656;9.810;2023-04-24T04:49:35;4.77;;;4.77;;
4272;SDS011;63887;53.656;9.810;2023-04-24T04:52:01;5.00;;;4.90;;
4272;SDS011;63887;53.656;9.810;2023-04-24T04:54:28;6.23;;;5.30;;
4272;SDS011;63887;53.656;9.810;2023-04-24T04:56:54;4.80;;;4.80;;
4272;SDS011;63887;53.656;9.810;2023-04-24T04:59:22;4.90;;;4.90;;
4272;SDS011;63887;53.656;9.810;2023-04-24T05:01:48;5.40;;;5.40;;
4272;SDS011;63887;53.656;9.810;2023-04-24T05:04:15;5.07;;;5.07;;
4272;SDS011;63887;53.656;9.810;2023-04-24T05:06:42;5.00;;;5.00;;
4272;SDS011;63887;53.656;9.810;2023-04-24T05:09:09;5.17;;;5.13;;
4272;SDS011;63887;53.656;9.810;2023-04-24T05:11:36;5.33;;;5.33;;
4272;SDS011;63887;53.656;9.810;2023-04-24T05:14:02;4.70;;;4.70;;
4272;SDS011;63887;53.656;9.810;2023-04-24T05:16:29;4.93;;;4.93;;
4272;SDS011;63887;53.656;9.810;2023-04-24T05:18:55;4.70;;;4.70;;
4272;SDS011;63887;53.656;9.810;2023-04-24T05:21:22;5.17;;;5.07;;
4272;SDS011;63887;53.656;9.810;2023-04-24T05:23:50;4.93;;;4.77;;
4272;SDS011;63887;53.656;9.810;2023-04-24T05:26:16;5.70;;;5.60;;
4272;SDS011;63887;53.656;9.810;2023-04-24T05:28:43;5.27;;;5.17;;
4272;SDS011;63887;53.656;9.810;2023-04-24T05:31:09;4.93;;;4.57;;
4272;SDS011;63887;53.656;9.810;2023-04-24T05:33:37;4.67;;;4.67;;
4272;SDS011;63887;53.656;9.810;2023-04-24T05:36:04;4.70;;;4.70;;
4272;SDS011;63887;53.656;9.810;2023-04-24T05:38:32;5.57;;;5.47;;
4272;SDS011;63887;53.656;9.810;2023-04-24T05:40:59;4.77;;;4.77;;
4272;SDS011;63887;53.656;9.810;2023-04-24T05:43:26;5.47;;;5.47;;
4272;SDS011;63887;53.656;9.810;2023-04-24T05:45:52;5.27;;;5.27;;
4272;SDS011;63887;53.656;9.810;2023-04-24T05:48:19;5.87;;;5.70;;
4272;SDS011;63887;53.656;9.810;2023-04-24T05:50:46;5.00;;;5.00;;
4272;SDS011;63887;53.656;9.810;2023-04-24T05:53:13;5.07;;;4.97;;
4272;SDS011;63887;53.656;9.810;2023-04-24T05:55:39;4.60;;;4.60;;
4272;SDS011;63887;53.656;9.810;2023-04-24T05:58:07;4.90;;;4.90;;
4272;SDS011;63887;53.656;9.810;2023-04-24T06:00:34;4.90;;;4.90;;
4272;SDS011;63887;53.656;9.810;2023-04-24T06:03:01;5.03;;;5.03;;
4272;SDS011;63887;53.656;9.810;2023-04-24T06:05:28;4.80;;;4.80;;
4272;SDS011;63887;53.656;9.810;2023-04-24T06:07:55;5.10;;;5.00;;
4272;SDS011;63887;53.656;9.810;2023-04-24T06:10:21;5.17;;;5.07;;
4272;SDS011;63887;53.656;9.810;2023-04-24T06:12:48;4.50;;;4.40;;
4272;SDS011;63887;53.656;9.810;2023-04-24T06:15:16;5.23;;;5.23;;
4272;SDS011;63887;53.656;9.810;2023-04-24T06:17:42;5.13;;;5.13;;
4272;SDS011;63887;53.656;9.810;2023-04-24T06:20:09;5.27;;;5.27;;
4272;SDS011;63887;53.656;9.810;2023-04-24T06:22:36;4.43;;;4.43;;
4272;SDS011;63887;53.656;9.810;2023-04-24T06:25:05;4.87;;;4.87;;
4272;SDS011;63887;53.656;9.810;2023-04-24T06:27:32;4.50;;;4.50;;
4272;SDS011;63887;53.656;9.810;2023-04-24T06:29:58;5.43;;;5.43;;
4272;SDS011;63887;53.656;9.810;2023-04-24T06:32:26;4.80;;;4.80;;
4272;SDS011;63887;53.656;9.810;2023-04-24T06:34:53;4.70;;;4.70;;
4272;SDS011;63887;53.656;9.810;2023-04-24T06:37:20;4.37;;;4.37;;
4272;SDS011;63887;53.656;9.810;2023-04-24T06:39:46;4.53;;;4.53;;
4272;SDS011;63887;53.656;9.810;2023-04-24T06:42:13;4.70;;;4.70;;
4272;SDS011;63887;53.656;9.810;2023-04-24T06:44:39;4.43;;;4.43;;
4272;SDS011;63887;53.656;9.810;2023-04-24T06:47:06;4.90;;;4.90;;
4272;SDS011;63887;53.656;9.810;2023-04-24T06:49:34;4.97;;;4.97;;
4272;SDS011;63887;53.656;9.810;2023-04-24T06:52:01;4.80;;;4.80;;
4272;SDS011;63887;53.656;9.810;2023-04-24T06:54:28;5.23;;;5.13;;
4272;SDS011;63887;53.656;9.810;2023-04-24T06:56:54;4.77;;;4.77;;
4272;SDS011;63887;53.656;9.810;2023-04-24T06:59:22;5.00;;;4.93;;
4272;SDS011;63887;53.656;9.810;2023-04-24T07:01:48;5.30;;;5.20;;
4272;SDS011;63887;53.656;9.810;2023-04-24T07:04:16;5.50;;;5.40;;
4272;SDS011;63887;53.656;9.810;2023-04-24T07:06:43;5.37;;;5.27;;
4272;SDS011;63887;53.656;9.810;2023-04-24T07:09:11;4.97;;;4.97;;
4272;SDS011;63887;53.656;9.810;2023-04-24T07:11:38;4.97;;;4.97;;
4272;SDS011;63887;53.656;9.810;2023-04-24T07:14:05;5.20;;;5.20;;
4272;SDS011;63887;53.656;9.810;2023-04-24T07:16:32;5.43;;;5.43;;
4272;SDS011;63887;53.656;9.810;2023-04-24T07:18:58;4.80;;;4.73;;
4272;SDS011;63887;53.656;9.810;2023-04-24T07:21:25;5.63;;;5.53;;
4272;SDS011;63887;53.656;9.810;2023-04-24T07:23:53;5.47;;;5.47;;
4272;SDS011;63887;53.656;9.810;2023-04-24T07:26:20;5.80;;;5.73;;
4272;SDS011;63887;53.656;9.810;2023-04-24T07:28:46;5.30;;;5.30;;
4272;SDS011;63887;53.656;9.810;2023-04-24T07:31:13;5.33;;;5.23;;
4272;SDS011;63887;53.656;9.810;2023-04-24T07:33:39;5.23;;;5.23;;
4272;SDS011;63887;53.656;9.810;2023-04-24T07:36:06;6.37;;;6.27;;
4272;SDS011;63887;53.656;9.810;2023-04-24T07:38:32;5.77;;;5.67;;
4272;SDS011;63887;53.656;9.810;2023-04-24T07:41:00;6.47;;;6.17;;
4272;SDS011;63887;53.656;9.810;2023-04-24T07:43:26;6.60;;;6.50;;
4272;SDS011;63887;53.656;9.810;2023-04-24T07:45:53;5.87;;;5.77;;
4272;SDS011;63887;53.656;9.810;2023-04-24T07:48:19;6.70;;;6.60;;
4272;SDS011;63887;53.656;9.810;2023-04-24T07:50:47;6.60;;;6.50;;
4272;SDS011;63887;53.656;9.810;2023-04-24T07:53:13;6.43;;;6.33;;
4272;SDS011;63887;53.656;9.810;2023-04-24T07:55:40;7.27;;;7.13;;
4272;SDS011;63887;53.656;9.810;2023-04-24T07:58:07;6.90;;;6.80;;
4272;SDS011;63887;53.656;9.810;2023-04-24T08:00:34;6.77;;;6.60;;
4272;SDS011;63887;53.656;9.810;2023-04-24T08:03:01;6.90;;;6.70;;
4272;SDS011;63887;53.656;9.810;2023-04-24T08:05:28;7.13;;;7.03;;
4272;SDS011;63887;53.656;9.810;2023-04-24T08:07:54;7.00;;;6.80;;
4272;SDS011;63887;53.656;9.810;2023-04-24T08:10:21;6.73;;;6.43;;
4272;SDS011;63887;53.656;9.810;2023-04-24T08:12:48;5.60;;;5.50;;
4272;SDS011;63887;53.656;9.810;2023-04-24T08:15:16;6.70;;;6.60;;
4272;SDS011;63887;53.656;9.810;2023-04-24T08:17:43;7.00;;;6.90;;
4272;SDS011;63887;53.656;9.810;2023-04-24T08:20:10;6.10;;;6.00;;
4272;SDS011;63887;53.656;9.810;2023-04-24T08:22:38;7.03;;;6.93;;
4272;SDS011;63887;53.656;9.810;2023-04-24T08:25:05;6.80;;;6.63;;
4272;SDS011;63887;53.656;9.810;2023-04-24T08:27:32;6.10;;;6.00;;
4272;SDS011;63887;53.656;9.810;2023-04-24T08:29:59;6.20;;;6.10;;
4272;SDS011;63887;53.656;9.810;2023-04-24T08:32:27;6.43;;;6.33;;
4272;SDS011;63887;53.656;9.810;2023-04-24T08:34:53;6.83;;;6.67;;
4272;SDS011;63887;53.656;9.810;2023-04-24T08:37:21;6.37;;;6.23;;
4272;SDS011;63887;53.656;9.810;2023-04-24T08:39:48;5.77;;;5.67;;
4272;SDS011;63887;53.656;9.810;2023-04-24T08:42:15;6.70;;;6.60;;
4272;SDS011;63887;53.656;9.810;2023-04-24T08:44:42;6.30;;;6.10;;
4272;SDS011;63887;53.656;9.810;2023-04-24T08:47:10;6.83;;;6.70;;
4272;SDS011;63887;53.656;9.810;2023-04-24T08:49:38;6.00;;;5.90;;
4272;SDS011;63887;53.656;9.810;2023-04-24T08:52:05;5.43;;;5.33;;
4272;SDS011;63887;53.656;9.810;2023-04-24T08:54:31;6.03;;;5.93;;
4272;SDS011;63887;53.656;9.810;2023-04-24T08:57:00;6.70;;;6.57;;
4272;SDS011;63887;53.656;9.810;2023-04-24T08:59:28;6.40;;;6.30;;
4272;SDS011;63887;53.656;9.810;2023-04-24T09:01:55;7.03;;;6.73;;
4272;SDS011;63887;53.656;9.810;2023-04-24T09:04:23;6.13;;;6.03;;
4272;SDS011;63887;53.656;9.810;2023-04-24T09:06:52;6.00;;;5.90;;
4272;SDS011;63887;53.656;9.810;2023-04-24T09:09:22;7.20;;;7.00;;
4272;SDS011;63887;53.656;9.810;2023-04-24T09:11:49;7.30;;;6.80;;
4272;SDS011;63887;53.656;9.810;2023-04-24T09:14:16;7.00;;;6.90;;
4272;SDS011;63887;53.656;9.810;2023-04-24T09:16:43;7.43;;;7.17;;
4272;SDS011;63887;53.656;9.810;2023-04-24T09:19:09;6.20;;;6.10;;
4272;SDS011;63887;53.656;9.810;2023-04-24T09:21:36;5.70;;;5.60;;
4272;SDS011;63887;53.656;9.810;2023-04-24T09:24:05;6.93;;;6.83;;
4272;SDS011;63887;53.656;9.810;2023-04-24T09:26:34;7.77;;;7.67;;
4272;SDS011;63887;53.656;9.810;2023-04-24T09:29:03;6.80;;;6.70;;
4272;SDS011;63887;53.656;9.810;2023-04-24T09:31:30;7.47;;;7.17;;
4272;SDS011;63887;53.656;9.810;2023-04-24T09:33:57;7.20;;;7.00;;
4272;SDS011;63887;53.656;9.810;2023-04-24T09:36:28;8.30;;;8.10;;
4272;SDS011;63887;53.656;9.810;2023-04-24T09:38:58;8.03;;;7.83;;
4272;SDS011;63887;53.656;9.810;2023-04-24T09:41:26;7.20;;;7.10;;
4272;SDS011;63887;53.656;9.810;2023-04-24T09:43:54;8.80;;;8.40;;
4272;SDS011;63887;53.656;9.810;2023-04-24T09:46:21;7.33;;;7.20;;
4272;SDS011;63887;53.656;9.810;2023-04-24T09:48:55;7.90;;;7.60;;
4272;SDS011;63887;53.656;9.810;2023-04-24T09:51:24;7.53;;;7.20;;
4272;SDS011;63887;53.656;9.810;2023-04-24T09:54:00;7.63;;;7.53;;
4272;SDS011;63887;53.656;9.810;2023-04-24T09:56:28;7.43;;;7.23;;
4272;SDS011;63887;53.656;9.810;2023-04-24T09:59:03;8.80;;;8.50;;
4272;SDS011;63887;53.656;9.810;2023-04-24T10:01:30;7.77;;;7.57;;
4272;SDS011;63887;53.656;9.810;2023-04-24T10:03:57;8.10;;;7.90;;
4272;SDS011;63887;53.656;9.810;2023-04-24T10:06:29;9.37;;;8.87;;
4272;SDS011;63887;53.656;9.810;2023-04-24T10:08:57;7.40;;;7.10;;
4272;SDS011;63887;53.656;9.810;2023-04-24T10:11:24;6.43;;;6.33;;
4272;SDS011;63887;53.656;9.810;2023-04-24T10:13:53;6.23;;;6.03;;
4272;SDS011;63887;53.656;9.810;2023-04-24T10:16:22;7.23;;;7.10;;
4272;SDS011;63887;53.656;9.810;2023-04-24T10:18:49;7.70;;;7.30;;
4272;SDS011;63887;53.656;9.810;2023-04-24T10:21:16;6.87;;;6.63;;
4272;SDS011;63887;53.656;9.810;2023-04-24T10:23:43;7.13;;;6.93;;
4272;SDS011;63887;53.656;9.810;2023-04-24T10:26:11;7.80;;;7.57;;
4272;SDS011;63887;53.656;9.810;2023-04-24T10:28:42;6.70;;;6.50;;
4272;SDS011;63887;53.656;9.810;2023-04-24T10:31:12;7.60;;;7.40;;
4272;SDS011;63887;53.656;9.810;2023-04-24T10:33:39;7.10;;;6.83;;
4272;SDS011;63887;53.656;9.810;2023-04-24T10:36:07;7.40;;;7.10;;
4272;SDS011;63887;53.656;9.810;2023-04-24T10:38:35;7.40;;;7.20;;
4272;SDS011;63887;53.656;9.810;2023-04-24T10:41:07;7.13;;;6.87;;
4272;SDS011;63887;53.656;9.810;2023-04-24T10:43:37;6.90;;;6.80;;
4272;SDS011;63887;53.656;9.810;2023-04-24T10:46:06;8.07;;;7.67;;
4272;SDS011;63887;53.656;9.810;2023-04-24T10:48:34;7.50;;;7.20;;
4272;SDS011;63887;53.656;9.810;2023-04-24T10:51:01;8.37;;;7.97;;
4272;SDS011;63887;53.656;9.810;2023-04-24T10:53:29;7.40;;;7.20;;
4272;SDS011;63887;53.656;9.810;2023-04-24T10:56:02;7.30;;;7.00;;
4272;SDS011;63887;53.656;9.810;2023-04-24T10:58:37;7.50;;;7.30;;
4272;SDS011;63887;53.656;9.810;2023-04-24T11:01:05;7.70;;;7.40;;
4272;SDS011;63887;53.656;9.810;2023-04-24T11:03:33;7.50;;;7.17;;
4272;SDS011;63887;53.656;9.810;2023-04-24T11:06:02;7.73;;;7.23;;
4272;SDS011;63887;53.656;9.810;2023-04-24T11:08:30;7.33;;;7.03;;
4272;SDS011;63887;53.656;9.810;2023-04-24T11:11:06;6.73;;;6.53;;
4272;SDS011;63887;53.656;9.810;2023-04-24T11:16:29;7.90;;;7.60;;
4272;SDS011;63887;53.656;9.810;2023-04-24T11:19:01;8.63;;;8.17;;
4272;SDS011;63887;53.656;9.810;2023-04-24T11:21:30;7.50;;;7.30;;
4272;SDS011;63887;53.656;9.810;2023-04-24T11:23:57;8.27;;;7.87;;
4272;SDS011;63887;53.656;9.810;2023-04-24T11:26:24;7.13;;;7.03;;
4272;SDS011;63887;53.656;9.810;2023-04-24T11:29:05;8.63;;;8.17;;
4272;SDS011;63887;53.656;9.810;2023-04-24T11:31:36;8.33;;;8.03;;
4272;SDS011;63887;53.656;9.810;2023-04-24T11:34:09;7.53;;;7.10;;
4272;SDS011;63887;53.656;9.810;2023-04-24T11:36:37;8.70;;;8.30;;
4272;SDS011;63887;53.656;9.810;2023-04-24T11:39:03;8.13;;;7.80;;
4272;SDS011;63887;53.656;9.810;2023-04-24T11:41:31;7.90;;;7.37;;
4272;SDS011;63887;53.656;9.810;2023-04-24T11:43:58;7.30;;;6.90;;
4272;SDS011;63887;53.656;9.810;2023-04-24T11:46:27;8.30;;;8.03;;
4272;SDS011;63887;53.656;9.810;2023-04-24T11:48:54;7.43;;;7.03;;
4272;SDS011;63887;53.656;9.810;2023-04-24T11:51:23;7.47;;;7.17;;
4272;SDS011;63887;53.656;9.810;2023-04-24T11:53:50;7.10;;;6.87;;
4272;SDS011;63887;53.656;9.810;2023-04-24T11:56:17;6.90;;;6.70;;
4272;SDS011;63887;53.656;9.810;2023-04-24T11:58:44;7.33;;;7.03;;
4272;SDS011;63887;53.656;9.810;2023-04-24T12:01:10;7.83;;;7.63;;
4272;SDS011;63887;53.656;9.810;2023-04-24T12:03:37;6.87;;;6.67;;
4272;SDS011;63887;53.656;9.810;2023-04-24T12:06:04;6.70;;;6.60;;
4272;SDS011;63887;53.656;9.810;2023-04-24T12:08:34;6.47;;;6.30;;
4272;SDS011;63887;53.656;9.810;2023-04-24T12:11:00;6.50;;;6.40;;
4272;SDS011;63887;53.656;9.810;2023-04-24T12:13:27;6.50;;;6.40;;
4272;SDS011;63887;53.656;9.810;2023-04-24T12:15:54;6.00;;;5.90;;
4272;SDS011;63887;53.656;9.810;2023-04-24T12:18:21;7.20;;;6.80;;
4272;SDS011;63887;53.656;9.810;2023-04-24T12:20:48;5.60;;;5.50;;
4272;SDS011;63887;53.656;9.810;2023-04-24T12:23:14;6.80;;;6.60;;
4272;SDS011;63887;53.656;9.810;2023-04-24T12:25:44;6.63;;;6.33;;
4272;SDS011;63887;53.656;9.810;2023-04-24T12:28:11;5.97;;;5.83;;
4272;SDS011;63887;53.656;9.810;2023-04-24T12:30:40;6.53;;;6.33;;
4272;SDS011;63887;53.656;9.810;2023-04-24T12:33:09;7.40;;;7.10;;
4272;SDS011;63887;53.656;9.810;2023-04-24T12:35:35;6.20;;;6.00;;
4272;SDS011;63887;53.656;9.810;2023-04-24T12:38:05;6.17;;;6.07;;
4272;SDS011;63887;53.656;9.810;2023-04-24T12:40:32;6.10;;;6.00;;
4272;SDS011;63887;53.656;9.810;2023-04-24T12:43:00;6.10;;;6.00;;
4272;SDS011;63887;53.656;9.810;2023-04-24T12:45:26;7.13;;;6.87;;
4272;SDS011;63887;53.656;9.810;2023-04-24T12:47:53;6.00;;;5.80;;
4272;SDS011;63887;53.656;9.810;2023-04-24T12:50:20;6.00;;;5.90;;
4272;SDS011;63887;53.656;9.810;2023-04-24T12:52:47;6.77;;;6.60;;
4272;SDS011;63887;53.656;9.810;2023-04-24T12:55:13;5.80;;;5.67;;
4272;SDS011;63887;53.656;9.810;2023-04-24T12:57:40;7.00;;;6.70;;
4272;SDS011;63887;53.656;9.810;2023-04-24T13:00:08;6.40;;;6.00;;
4272;SDS011;63887;53.656;9.810;2023-04-24T13:02:35;5.93;;;5.83;;
4272;SDS011;63887;53.656;9.810;2023-04-24T13:05:02;6.27;;;6.17;;
4272;SDS011;63887;53.656;9.810;2023-04-24T13:07:29;5.53;;;5.43;;
4272;SDS011;63887;53.656;9.810;2023-04-24T13:09:55;5.77;;;5.67;;
4272;SDS011;63887;53.656;9.810;2023-04-24T13:12:22;6.13;;;6.03;;
4272;SDS011;63887;53.656;9.810;2023-04-24T13:14:50;5.57;;;5.47;;
4272;SDS011;63887;53.656;9.810;2023-04-24T13:17:18;6.07;;;5.87;;
4272;SDS011;63887;53.656;9.810;2023-04-24T13:19:44;6.53;;;6.23;;
4272;SDS011;63887;53.656;9.810;2023-04-24T13:22:11;5.80;;;5.70;;
4272;SDS011;63887;53.656;9.810;2023-04-24T13:24:38;5.00;;;4.90;;
4272;SDS011;63887;53.656;9.810;2023-04-24T13:27:07;6.70;;;6.10;;
4272;SDS011;63887;53.656;9.810;2023-04-24T13:29:33;6.57;;;6.27;;
4272;SDS011;63887;53.656;9.810;2023-04-24T13:32:00;6.20;;;6.00;;
4272;SDS011;63887;53.656;9.810;2023-04-24T13:34:28;5.80;;;5.60;;
4272;SDS011;63887;53.656;9.810;2023-04-24T13:36:55;6.27;;;6.07;;
4272;SDS011;63887;53.656;9.810;2023-04-24T13:39:23;5.60;;;5.50;;
4272;SDS011;63887;53.656;9.810;2023-04-24T13:41:50;6.50;;;6.20;;
4272;SDS011;63887;53.656;9.810;2023-04-24T13:44:17;6.10;;;5.90;;
4272;SDS011;63887;53.656;9.810;2023-04-24T13:46:44;5.57;;;5.37;;
4272;SDS011;63887;53.656;9.810;2023-04-24T13:49:12;7.30;;;7.10;;
4272;SDS011;63887;53.656;9.810;2023-04-24T13:51:41;5.43;;;5.33;;
4272;SDS011;63887;53.656;9.810;2023-04-24T13:54:08;5.67;;;5.57;;
4272;SDS011;63887;53.656;9.810;2023-04-24T13:56:35;6.63;;;6.43;;
4272;SDS011;63887;53.656;9.810;2023-04-24T13:59:01;6.27;;;6.07;;
4272;SDS011;63887;53.656;9.810;2023-04-24T14:01:28;7.00;;;6.80;;
4272;SDS011;63887;53.656;9.810;2023-04-24T14:03:55;7.73;;;7.27;;
4272;SDS011;63887;53.656;9.810;2023-04-24T14:06:22;7.90;;;7.70;;
4272;SDS011;63887;53.656;9.810;2023-04-24T14:08:50;7.20;;;7.00;;
4272;SDS011;63887;53.656;9.810;2023-04-24T14:11:17;7.43;;;7.23;;
4272;SDS011;63887;53.656;9.810;2023-04-24T14:13:44;6.57;;;6.17;;
4272;SDS011;63887;53.656;9.810;2023-04-24T14:16:11;6.53;;;6.33;;
4272;SDS011;63887;53.656;9.810;2023-04-24T14:18:39;6.77;;;6.37;;
4272;SDS011;63887;53.656;9.810;2023-04-24T14:21:05;6.47;;;6.27;;
4272;SDS011;63887;53.656;9.810;2023-04-24T14:23:32;6.80;;;6.60;;
4272;SDS011;63887;53.656;9.810;2023-04-24T14:26:00;8.20;;;7.80;;
4272;SDS011;63887;53.656;9.810;2023-04-24T14:28:26;6.07;;;5.83;;
4272;SDS011;63887;53.656;9.810;2023-04-24T14:30:53;6.40;;;6.30;;
4272;SDS011;63887;53.656;9.810;2023-04-24T14:33:19;6.40;;;6.30;;
4272;SDS011;63887;53.656;9.810;2023-04-24T14:35:46;6.30;;;6.10;;
4272;SDS011;63887;53.656;9.810;2023-04-24T14:38:12;7.30;;;7.20;;
4272;SDS011;63887;53.656;9.810;2023-04-24T14:40:39;7.40;;;7.10;;
4272;SDS011;63887;53.656;9.810;2023-04-24T14:43:07;5.30;;;5.20;;
4272;SDS011;63887;53.656;9.810;2023-04-24T14:45:33;5.50;;;5.40;;
4272;SDS011;63887;53.656;9.810;2023-04-24T14:48:00;5.47;;;5.17;;
4272;SDS011;63887;53.656;9.810;2023-04-24T14:50:26;5.40;;;5.30;;
4272;SDS011;63887;53.656;9.810;2023-04-24T14:52:53;5.53;;;5.43;;
4272;SDS011;63887;53.656;9.810;2023-04-24T14:55:22;4.80;;;4.70;;
4272;SDS011;63887;53.656;9.810;2023-04-24T14:57:48;6.17;;;5.77;;
4272;SDS011;63887;53.656;9.810;2023-04-24T15:00:17;5.73;;;5.53;;
4272;SDS011;63887;53.656;9.810;2023-04-24T15:02:45;5.80;;;5.57;;